createdAt,value
2018-06-29T00:00:15.245Z,99.90
2018-06-29T00:02:43.679Z,99.80
2018-06-29T00:05:12.158Z,99.90
2018-06-29T00:07:40.654Z,99.70
2018-06-29T00:10:09.178Z,99.90
2018-06-29T00:12:37.601Z,99.90
2018-06-29T00:15:06.083Z,99.90
2018-06-29T00:17:34.523Z,99.90
2018-06-29T00:20:02.985Z,99.90
2018-06-29T00:22:31.423Z,99.90
2018-06-29T00:24:59.881Z,99.90
2018-06-29T00:29:56.533Z,99.90
2018-06-29T00:34:53.070Z,99.90
2018-06-29T00:37:21.526Z,99.90
2018-06-29T00:39:49.957Z,99.90
2018-06-29T00:42:18.418Z,99.90
2018-06-29T00:44:46.853Z,99.90
2018-06-29T00:47:15.313Z,99.90
2018-06-29T00:49:43.773Z,99.90
2018-06-29T00:54:40.433Z,99.90
2018-06-29T00:57:08.895Z,99.90
2018-06-29T00:59:37.313Z,99.90
2018-06-29T01:02:05.817Z,99.90
2018-06-29T01:04:34.252Z,99.90
2018-06-29T01:07:02.711Z,99.90
2018-06-29T01:09:31.153Z,99.90
2018-06-29T01:11:59.661Z,99.90
2018-06-29T01:14:28.102Z,99.90
2018-06-29T01:16:56.611Z,99.90
2018-06-29T01:19:25.040Z,99.90
2018-06-29T01:21:53.513Z,99.90
2018-06-29T01:24:21.916Z,99.90
2018-06-29T01:26:50.330Z,99.90
2018-06-29T01:29:18.835Z,99.90
2018-06-29T01:31:47.281Z,99.90
2018-06-29T01:34:15.747Z,99.90
2018-06-29T01:36:44.213Z,99.90
2018-06-29T01:39:12.677Z,99.90
2018-06-29T01:41:41.115Z,99.90
2018-06-29T01:44:09.597Z,99.90
2018-06-29T01:46:38.033Z,99.90
2018-06-29T01:49:06.482Z,99.90
2018-06-29T01:54:03.057Z,99.90
2018-06-29T01:56:31.502Z,99.90
2018-06-29T01:58:59.994Z,99.90
2018-06-29T02:03:56.569Z,99.90
2018-06-29T02:06:25.019Z,99.90
2018-06-29T02:11:21.627Z,99.90
2018-06-29T02:13:50.041Z,99.90
2018-06-29T02:16:18.465Z,99.90
2018-06-29T02:18:46.902Z,99.90
2018-06-29T02:21:15.361Z,99.90
2018-06-29T02:23:43.780Z,99.90
2018-06-29T02:26:12.209Z,99.90
2018-06-29T02:28:40.702Z,99.90
2018-06-29T02:31:09.162Z,99.90
2018-06-29T02:33:37.602Z,99.90
2018-06-29T02:36:06.087Z,99.90
2018-06-29T02:38:34.609Z,99.90
2018-06-29T02:41:03.026Z,99.90
2018-06-29T02:43:31.444Z,99.90
2018-06-29T02:45:59.906Z,99.90
2018-06-29T02:48:28.314Z,99.90
2018-06-29T02:50:56.748Z,99.90
2018-06-29T02:53:25.181Z,99.90
2018-06-29T02:55:53.607Z,99.90
2018-06-29T03:00:50.186Z,99.90
2018-06-29T03:03:18.609Z,99.90
2018-06-29T03:05:47.094Z,99.90
2018-06-29T03:08:15.513Z,99.90
2018-06-29T03:10:43.938Z,99.90
2018-06-29T03:13:12.362Z,99.90
2018-06-29T03:15:40.805Z,99.90
2018-06-29T03:18:09.229Z,99.90
2018-06-29T03:20:37.688Z,99.90
2018-06-29T03:23:06.120Z,99.90
2018-06-29T03:25:34.563Z,99.90
2018-06-29T03:28:03.026Z,99.90
2018-06-29T03:32:59.596Z,99.90
2018-06-29T03:35:28.059Z,99.90
2018-06-29T03:37:56.501Z,99.90
2018-06-29T03:40:24.977Z,99.90
2018-06-29T03:42:53.349Z,99.90
2018-06-29T03:45:21.766Z,99.90
2018-06-29T03:47:50.192Z,99.90
2018-06-29T03:50:18.629Z,99.90
2018-06-29T03:52:47.065Z,99.90
2018-06-29T03:55:15.490Z,99.90
2018-06-29T03:57:43.946Z,99.90
2018-06-29T04:00:12.398Z,99.90
2018-06-29T04:02:40.875Z,99.90
2018-06-29T04:05:09.286Z,99.90
2018-06-29T04:07:37.737Z,99.90
2018-06-29T04:10:06.156Z,99.90
2018-06-29T04:12:34.602Z,99.90
2018-06-29T04:15:03.110Z,99.90
2018-06-29T04:17:31.580Z,99.90
2018-06-29T04:19:59.991Z,99.90
2018-06-29T04:25:01.775Z,99.90
2018-06-29T04:27:30.383Z,99.90
2018-06-29T04:29:58.837Z,99.90
2018-06-29T04:32:27.253Z,99.90
2018-06-29T04:34:55.737Z,99.90
2018-06-29T04:37:24.173Z,99.90
2018-06-29T04:42:21.219Z,99.90
2018-06-29T04:44:49.693Z,99.90
2018-06-29T04:47:18.541Z,99.90
2018-06-29T04:49:46.937Z,99.90
2018-06-29T04:52:15.368Z,99.90
2018-06-29T04:54:43.833Z,99.90
2018-06-29T04:57:12.281Z,99.50
2018-06-29T04:59:40.742Z,99.70
2018-06-29T05:02:09.170Z,99.20
2018-06-29T05:04:37.643Z,99.90
2018-06-29T05:07:06.074Z,99.70
2018-06-29T05:09:34.546Z,99.10
2018-06-29T05:12:03.017Z,99.40
2018-06-29T05:14:31.433Z,99.40
2018-06-29T05:16:59.878Z,99.20
2018-06-29T05:19:28.340Z,99.40
2018-06-29T05:21:56.795Z,99.20
2018-06-29T05:24:25.496Z,98.80
2018-06-29T05:26:53.923Z,98.90
2018-06-29T05:29:22.490Z,98.90
2018-06-29T05:31:50.938Z,98.90
2018-06-29T05:36:47.538Z,98.80
2018-06-29T05:39:15.997Z,98.30
2018-06-29T05:41:44.553Z,98.20
2018-06-29T05:44:12.937Z,98.10
2018-06-29T05:49:10.004Z,98.40
2018-06-29T05:51:38.725Z,98.70
2018-06-29T05:54:07.349Z,98.80
2018-06-29T05:56:35.854Z,98.10
2018-06-29T05:59:04.668Z,98.40
2018-06-29T06:01:33.149Z,97.70
2018-06-29T06:04:01.593Z,97.50
2018-06-29T06:06:30.039Z,97.00
2018-06-29T06:08:58.533Z,97.30
2018-06-29T06:11:26.994Z,96.60
2018-06-29T06:13:55.439Z,96.20
2018-06-29T06:16:23.882Z,95.50
2018-06-29T06:21:24.875Z,95.90
2018-06-29T06:23:53.338Z,96.10
2018-06-29T06:26:21.792Z,96.20
2018-06-29T06:28:50.233Z,96.10
2018-06-29T06:31:18.665Z,96.00
2018-06-29T06:33:47.113Z,96.00
2018-06-29T06:36:15.558Z,95.60
2018-06-29T06:38:44.020Z,95.70
2018-06-29T06:41:12.422Z,95.50
2018-06-29T06:43:40.874Z,95.40
2018-06-29T06:46:09.326Z,95.40
2018-06-29T06:48:37.781Z,95.30
2018-06-29T06:51:06.254Z,95.40
2018-06-29T06:53:34.764Z,95.10
2018-06-29T06:56:03.180Z,94.80
2018-06-29T06:58:31.573Z,94.10
2018-06-29T07:01:00.023Z,94.60
2018-06-29T07:03:28.462Z,95.30
2018-06-29T07:05:56.882Z,95.20
2018-06-29T07:08:25.294Z,95.50
2018-06-29T07:10:53.781Z,95.10
2018-06-29T07:13:22.226Z,94.60
2018-06-29T07:15:50.669Z,94.10
2018-06-29T07:18:19.107Z,94.10
2018-06-29T07:20:47.541Z,94.10
2018-06-29T07:23:16.058Z,93.00
2018-06-29T07:25:44.529Z,92.60
2018-06-29T07:28:12.992Z,91.90
2018-06-29T07:30:41.438Z,92.50
2018-06-29T07:33:09.866Z,92.30
2018-06-29T07:35:38.310Z,92.10
2018-06-29T07:38:06.754Z,91.30
2018-06-29T07:40:35.242Z,91.30
2018-06-29T07:43:03.665Z,90.70
2018-06-29T07:45:32.133Z,91.70
2018-06-29T07:48:00.574Z,91.30
2018-06-29T07:50:29.017Z,90.40
2018-06-29T07:55:25.630Z,90.90
2018-06-29T07:57:54.074Z,90.70
2018-06-29T08:00:22.489Z,90.10
2018-06-29T08:02:50.962Z,90.20
2018-06-29T08:05:19.397Z,87.90
2018-06-29T08:07:47.829Z,86.40
2018-06-29T08:10:16.270Z,88.40
2018-06-29T08:12:44.710Z,86.60
2018-06-29T08:15:13.241Z,86.90
2018-06-29T08:17:41.657Z,86.10
2018-06-29T08:20:10.147Z,85.70
2018-06-29T08:22:38.550Z,86.20
2018-06-29T08:27:42.320Z,88.40
2018-06-29T08:30:11.780Z,85.90
2018-06-29T08:32:40.234Z,85.20
2018-06-29T08:35:09.653Z,83.90
2018-06-29T08:42:36.002Z,80.70
2018-06-29T08:45:04.894Z,83.90
2018-06-29T08:50:01.489Z,83.20
2018-06-29T08:52:29.901Z,80.60
2018-06-29T08:54:58.528Z,76.60
2018-06-29T08:57:26.991Z,75.30
2018-06-29T09:02:23.593Z,76.30
2018-06-29T09:04:52.067Z,77.50
2018-06-29T09:07:20.509Z,77.20
2018-06-29T09:12:17.105Z,79.10
2018-06-29T09:14:45.514Z,80.90
2018-06-29T09:17:13.966Z,78.80
2018-06-29T09:19:42.373Z,79.30
2018-06-29T09:22:10.826Z,81.00
2018-06-29T09:24:39.241Z,76.70
2018-06-29T09:27:07.710Z,76.20
2018-06-29T09:29:36.152Z,74.60
2018-06-29T09:32:04.654Z,74.70
2018-06-29T09:34:33.085Z,75.50
2018-06-29T09:39:29.662Z,75.10
2018-06-29T09:41:58.107Z,72.80
2018-06-29T09:44:26.545Z,73.40
2018-06-29T09:46:54.992Z,73.50
2018-06-29T09:49:23.446Z,72.50
2018-06-29T09:51:51.871Z,74.70
2018-06-29T09:54:20.311Z,73.80
2018-06-29T09:56:48.730Z,70.50
2018-06-29T09:59:17.177Z,68.40
2018-06-29T10:01:45.590Z,67.40
2018-06-29T10:04:14.037Z,69.30
2018-06-29T10:06:42.461Z,67.50
2018-06-29T10:09:11.705Z,68.60
2018-06-29T10:11:40.210Z,66.00
2018-06-29T10:14:08.716Z,66.30
2018-06-29T10:16:37.109Z,65.70
2018-06-29T10:19:05.586Z,66.40
2018-06-29T10:21:34.027Z,67.10
2018-06-29T10:24:02.509Z,64.80
2018-06-29T10:26:30.967Z,60.90
2018-06-29T10:31:27.541Z,60.90
2018-06-29T10:33:55.989Z,58.90
2018-06-29T10:36:24.394Z,57.30
2018-06-29T10:38:52.865Z,54.00
2018-06-29T10:41:21.310Z,53.80
2018-06-29T10:43:49.786Z,55.30
2018-06-29T10:46:18.234Z,54.70
2018-06-29T10:48:46.676Z,54.40
2018-06-29T10:51:15.158Z,53.50
2018-06-29T10:53:43.591Z,53.40
2018-06-29T10:56:12.061Z,51.80
2018-06-29T10:58:40.527Z,48.60
2018-06-29T11:01:09.060Z,51.40
2018-06-29T11:03:37.486Z,52.70
2018-06-29T11:06:05.942Z,50.10
2018-06-29T11:08:34.389Z,52.00
2018-06-29T11:11:02.875Z,50.10
2018-06-29T11:13:31.278Z,48.70
2018-06-29T11:15:59.733Z,46.80
2018-06-29T11:18:28.145Z,45.90
2018-06-29T11:20:56.929Z,45.60
2018-06-29T11:23:25.369Z,47.30
2018-06-29T11:25:53.813Z,47.80
2018-06-29T11:28:22.246Z,49.20
2018-06-29T11:33:18.779Z,47.70
2018-06-29T11:35:47.218Z,48.60
2018-06-29T11:38:15.652Z,48.60
2018-06-29T11:40:44.060Z,48.60
2018-06-29T11:43:12.485Z,48.80
2018-06-29T11:45:40.889Z,48.50
2018-06-29T11:50:37.428Z,49.20
2018-06-29T11:53:05.934Z,47.40
2018-06-29T11:58:02.580Z,49.70
2018-06-29T12:00:31.009Z,50.80
2018-06-29T12:02:59.456Z,51.10
2018-06-29T12:05:27.873Z,50.50
2018-06-29T12:07:56.292Z,48.80
2018-06-29T12:10:24.726Z,49.80
2018-06-29T12:12:53.161Z,49.80
2018-06-29T12:17:49.926Z,49.70
2018-06-29T12:20:18.367Z,48.80
2018-06-29T12:22:46.773Z,51.20
2018-06-29T12:27:43.315Z,48.80
2018-06-29T12:32:39.916Z,50.30
2018-06-29T12:35:08.371Z,49.10
2018-06-29T12:37:36.792Z,48.50
2018-06-29T12:40:05.297Z,47.30
2018-06-29T12:42:33.762Z,49.30
2018-06-29T12:45:02.209Z,48.30
2018-06-29T12:47:30.621Z,47.80
2018-06-29T12:49:59.065Z,51.20
2018-06-29T12:52:27.501Z,51.70
2018-06-29T12:57:24.129Z,48.30
2018-06-29T12:59:52.542Z,48.80
2018-06-29T13:02:20.986Z,50.50
2018-06-29T13:04:49.463Z,49.10
2018-06-29T13:07:17.837Z,51.10
2018-06-29T13:09:46.261Z,49.90
2018-06-29T13:14:42.813Z,49.80
2018-06-29T13:19:39.397Z,50.70
2018-06-29T13:22:07.841Z,50.20
2018-06-29T13:27:04.465Z,52.90
2018-06-29T13:29:32.925Z,50.30
2018-06-29T13:32:01.362Z,48.20
2018-06-29T13:34:29.865Z,49.50
2018-06-29T13:36:58.315Z,50.50
2018-06-29T13:39:26.745Z,51.70
2018-06-29T13:41:55.192Z,52.00
2018-06-29T13:44:23.631Z,52.60
2018-06-29T13:46:52.102Z,52.70
2018-06-29T13:49:20.556Z,53.10
2018-06-29T13:51:48.962Z,53.60
2018-06-29T13:54:17.402Z,53.50
2018-06-29T13:56:45.822Z,51.90
2018-06-29T13:59:14.273Z,50.40
2018-06-29T14:01:42.686Z,53.70
2018-06-29T14:04:11.142Z,53.30
2018-06-29T14:06:39.574Z,51.10
2018-06-29T14:11:36.241Z,49.10
2018-06-29T14:14:04.691Z,45.80
2018-06-29T14:16:33.161Z,42.10
2018-06-29T14:19:01.611Z,39.60
2018-06-29T14:21:30.047Z,40.40
2018-06-29T14:26:26.631Z,38.90
2018-06-29T14:28:55.135Z,37.30
2018-06-29T14:31:23.550Z,36.70
2018-06-29T14:36:20.179Z,36.40
2018-06-29T14:38:48.613Z,36.80
2018-06-29T14:41:17.019Z,34.00
2018-06-29T14:43:45.541Z,33.60
2018-06-29T14:48:42.113Z,33.60
2018-06-29T14:51:10.566Z,33.50
2018-06-29T14:53:38.998Z,34.60
2018-06-29T14:56:07.438Z,35.30
2018-06-29T14:58:35.873Z,35.00
2018-06-29T15:01:04.357Z,34.60
2018-06-29T15:03:32.797Z,32.90
2018-06-29T15:06:01.278Z,33.80
2018-06-29T15:08:29.794Z,36.40
2018-06-29T15:10:58.268Z,34.40
2018-06-29T15:13:28.721Z,35.20
2018-06-29T15:15:57.385Z,34.30
2018-06-29T15:18:25.724Z,36.00
2018-06-29T15:20:54.198Z,34.90
2018-06-29T15:23:22.653Z,33.40
2018-06-29T15:25:51.097Z,34.20
2018-06-29T15:28:19.580Z,35.10
2018-06-29T15:30:48.118Z,33.30
2018-06-29T15:33:16.566Z,33.00
2018-06-29T15:35:44.994Z,34.10
2018-06-29T15:38:13.458Z,34.40
2018-06-29T15:40:41.881Z,37.80
2018-06-29T15:43:11.455Z,41.30
2018-06-29T15:45:39.878Z,43.20
2018-06-29T15:48:08.713Z,44.30
2018-06-29T15:50:37.145Z,45.00
2018-06-29T15:53:05.977Z,46.40
2018-06-29T15:55:34.389Z,48.70
2018-06-29T15:58:02.881Z,50.30
2018-06-29T16:00:31.527Z,51.00
2018-06-29T16:02:59.974Z,51.90
2018-06-29T16:05:28.405Z,52.20
2018-06-29T16:07:57.013Z,50.00
2018-06-29T16:10:25.511Z,49.00
2018-06-29T16:12:54.036Z,49.20
2018-06-29T16:15:22.582Z,49.30
2018-06-29T16:17:51.051Z,49.10
2018-06-29T16:20:19.481Z,50.20
2018-06-29T16:22:47.989Z,49.60
2018-06-29T16:25:16.463Z,46.90
2018-06-29T16:27:44.937Z,46.80
2018-06-29T16:30:13.425Z,48.20
2018-06-29T16:32:41.877Z,49.90
2018-06-29T16:35:10.470Z,50.40
2018-06-29T16:37:38.901Z,50.90
2018-06-29T16:42:35.487Z,51.80
2018-06-29T16:45:04.002Z,52.40
2018-06-29T16:47:32.420Z,53.80
2018-06-29T16:50:00.849Z,56.30
2018-06-29T16:52:29.299Z,58.90
2018-06-29T16:59:54.281Z,66.40
2018-06-29T17:02:22.747Z,65.10
2018-06-29T17:04:51.189Z,67.00
2018-06-29T17:07:27.526Z,68.30
2018-06-29T17:09:55.955Z,65.10
2018-06-29T17:12:24.520Z,63.40
2018-06-29T17:17:20.994Z,68.10
2018-06-29T17:19:49.430Z,67.80
2018-06-29T17:22:17.928Z,71.50
2018-06-29T17:24:46.394Z,71.40
2018-06-29T17:29:42.975Z,69.40
2018-06-29T17:32:11.445Z,69.40
2018-06-29T17:34:39.879Z,71.50
2018-06-29T17:37:08.432Z,72.30
2018-06-29T17:39:36.883Z,72.80
2018-06-29T17:42:05.354Z,73.90
2018-06-29T17:44:34.474Z,74.30
2018-06-29T17:47:02.963Z,76.60
2018-06-29T17:49:31.486Z,76.00
2018-06-29T17:51:59.954Z,74.60
2018-06-29T17:54:28.379Z,75.90
2018-06-29T17:59:25.001Z,76.90
2018-06-29T18:01:53.497Z,78.80
2018-06-29T18:04:22.004Z,78.40
2018-06-29T18:06:50.451Z,79.30
2018-06-29T18:09:18.878Z,80.10
2018-06-29T18:11:47.332Z,80.30
2018-06-29T18:14:15.815Z,80.60
2018-06-29T18:16:44.245Z,80.40
2018-06-29T18:19:12.726Z,81.00
2018-06-29T18:21:41.191Z,81.40
2018-06-29T18:24:09.687Z,82.30
2018-06-29T18:26:38.910Z,82.50
2018-06-29T18:29:12.822Z,82.90
2018-06-29T18:31:41.434Z,83.90
2018-06-29T18:34:09.876Z,84.30
2018-06-29T18:36:38.332Z,85.50
2018-06-29T18:39:08.483Z,86.30
2018-06-29T18:41:37.015Z,86.70
2018-06-29T18:44:05.541Z,86.60
2018-06-29T18:46:33.989Z,87.60
2018-06-29T18:49:02.466Z,87.80
2018-06-29T18:51:31.133Z,87.90
2018-06-29T18:53:59.594Z,88.60
2018-06-29T18:56:28.053Z,89.30
2018-06-29T18:58:56.523Z,89.70
2018-06-29T19:01:25.046Z,90.20
2018-06-29T19:03:53.543Z,90.80
2018-06-29T19:06:22.053Z,90.30
2018-06-29T19:08:50.647Z,90.60
2018-06-29T19:13:47.263Z,90.60
2018-06-29T19:16:16.417Z,90.90
2018-06-29T19:21:13.033Z,91.00
2018-06-29T19:23:41.540Z,91.20
2018-06-29T19:26:09.991Z,91.20
2018-06-29T19:28:38.497Z,90.90
2018-06-29T19:31:07.868Z,91.10
2018-06-29T19:33:36.991Z,91.60
2018-06-29T19:36:05.575Z,91.40
2018-06-29T19:38:34.058Z,91.60
2018-06-29T19:43:30.656Z,92.00
2018-06-29T19:45:59.109Z,91.80
2018-06-29T19:48:27.572Z,92.00
2018-06-29T19:50:56.003Z,92.30
2018-06-29T19:53:24.457Z,92.60
2018-06-29T19:55:52.878Z,92.20
2018-06-29T19:58:21.310Z,91.40
2018-06-29T20:00:49.714Z,91.50
2018-06-29T20:03:18.169Z,91.30
2018-06-29T20:05:46.629Z,91.20
2018-06-29T20:08:15.085Z,90.80
2018-06-29T20:13:12.528Z,89.50
2018-06-29T20:15:41.061Z,89.30
2018-06-29T20:18:09.546Z,88.40
2018-06-29T20:20:37.991Z,88.80
2018-06-29T20:23:06.485Z,89.00
2018-06-29T20:25:34.913Z,89.40
2018-06-29T20:28:03.621Z,89.70
2018-06-29T20:30:32.129Z,91.10
2018-06-29T20:33:00.670Z,92.50
2018-06-29T20:35:29.089Z,93.60
2018-06-29T20:37:57.556Z,94.20
2018-06-29T20:40:26.037Z,94.90
2018-06-29T20:42:54.485Z,94.90
2018-06-29T20:45:22.973Z,95.00
2018-06-29T20:47:51.452Z,95.50
2018-06-29T20:50:19.974Z,95.30
2018-06-29T20:52:48.409Z,95.20
2018-06-29T20:55:16.865Z,95.50
2018-06-29T20:57:45.584Z,95.90
2018-06-29T21:00:14.079Z,96.00
2018-06-29T21:02:42.515Z,96.60
2018-06-29T21:05:11.009Z,96.40
2018-06-29T21:07:39.461Z,96.60
2018-06-29T21:10:07.971Z,96.80
2018-06-29T21:12:36.418Z,97.30
2018-06-29T21:15:05.142Z,97.70
2018-06-29T21:17:33.649Z,98.00
2018-06-29T21:20:02.099Z,97.80
2018-06-29T21:22:30.593Z,98.10
2018-06-29T21:24:59.063Z,98.00
2018-06-29T21:27:27.558Z,97.70
2018-06-29T21:29:56.037Z,97.60
2018-06-29T21:32:24.502Z,97.40
2018-06-29T21:34:52.946Z,97.40
2018-06-29T21:37:21.437Z,97.30
2018-06-29T21:42:18.033Z,97.50
2018-06-29T21:44:46.490Z,97.50
2018-06-29T21:47:15.018Z,97.50
2018-06-29T21:52:11.590Z,97.80
2018-06-29T21:54:40.038Z,98.10
2018-06-29T21:57:08.521Z,98.40
2018-06-29T21:59:36.998Z,98.50
2018-06-29T22:02:05.657Z,98.70
2018-06-29T22:04:34.120Z,98.80
2018-06-29T22:07:02.587Z,99.00
2018-06-29T22:09:31.067Z,99.20
2018-06-29T22:14:27.678Z,99.50
2018-06-29T22:16:56.195Z,99.40
2018-06-29T22:19:24.645Z,99.80
2018-06-29T22:21:53.156Z,99.60
2018-06-29T22:24:21.609Z,99.90
2018-06-29T22:26:50.062Z,99.90
2018-06-29T22:29:18.541Z,99.90
2018-06-29T22:31:46.989Z,99.90
2018-06-29T22:36:43.622Z,99.90
2018-06-29T22:39:12.962Z,99.90
2018-06-29T22:41:42.453Z,99.90
2018-06-29T22:44:10.906Z,99.90
2018-06-29T22:46:39.375Z,99.90
2018-06-29T22:49:07.938Z,99.90
2018-06-29T22:51:36.386Z,99.90
2018-06-29T22:54:04.871Z,99.90
2018-06-29T22:56:33.346Z,99.90
2018-06-29T22:59:01.818Z,99.90
2018-06-29T23:01:30.310Z,99.90
2018-06-29T23:03:58.738Z,99.90
2018-06-29T23:06:27.175Z,99.90
2018-06-29T23:08:55.633Z,99.90
2018-06-29T23:16:20.406Z,99.90
2018-06-29T23:18:48.839Z,99.90
2018-06-29T23:21:17.288Z,99.90
2018-06-29T23:23:45.729Z,99.90
2018-06-29T23:26:14.196Z,99.90
2018-06-29T23:28:42.659Z,99.90
2018-06-29T23:36:07.442Z,99.90
2018-06-29T23:38:35.891Z,99.90
2018-06-29T23:41:04.393Z,99.90
2018-06-29T23:43:32.820Z,99.90
2018-06-29T23:50:57.559Z,99.90
2018-06-29T23:53:26.015Z,99.90
2018-06-29T23:58:22.625Z,99.90
